Kezdőlap
METAR-TAF:

METAR-TAF

Repülőterek :

Eszék, Horvátország

földrajzi szélesség: 45-27N, földrajzi hosszúság: 018-48E, magasság: 88 m

Jelenlegi meteorológiai megfigyelések

A jelentés 35 perccel ezelõtt készült, 23:30 UTC
Déli szél 8 kt
Hőmérséklet 2°C
Páratartalom 75%
Légköri nyomás 1027 hPa
Látótávolság 10 km, vagy több
felhőtlen 1500 m magasságban, és nincs gomolyfelhõ

METAR: LDOS 222330Z 19008KT CAVOK 02/M02 Q1027

Idő: 01:05 (00:05 UTC)

Előrejelzés

A jelentés 40 perccel ezelõtt készült, 23:25 UTC
Az előrejelzés 23-én 00 óra UTC és 24-én 00 óra UTC között érvényes
Déli szél 6 kt
Látótávolság 10 km, vagy több
felhőtlen 1500 m magasságban, és nincs gomolyfelhõ
23-én 14 óra UTC és 23-én 16 óra UTC között fokozatosan kialakuló
Nyugat-délnyugati szél 8 kt
23-én 18 óra UTC és 24-én 00 óra UTC között ideiglenes
Nyugati szél 15 kt

TAF: LDOS 222325Z 2300/2400 18006KT CAVOK TX13/2313Z TN00/2305Z BECMG 2314/2316 25008KT TEMPO 2318/2400 27015KT

Meteorológiai megfigyelések és előrejelzések több, mint 4000 repülőtéren (METAR és TAF jelentéseket).

A térképen piros és sárga pontok jelzik az elérhető meteorológiai állomásokat.

Mozgassa az egeret a pont fölött, hogy megjelenjen az állomás neve.

Azután kattintson az időjárási megfigyelések és előrejelzések megtekintéséhez.

A térkép megváltoztatása: kattintson a fekete keresztel jelölt zöld gombra ráközelítéshez, a vonallal jelölt zöld gombra távolításhoz, vagy a zöld nyilakra a szomszédos térképek eléréséhez.


METAR-TAF: